Time;durP1;ratioP1;P1;durP2;ratioP2;P2;SDS_P1;SDS_P2;PMS_P1;PMS_P2;Temp;Humidity;BMP_temperature;BMP_pressure;BME280_temperature;BME280_humidity;BME280_pressure;Samples;Min_cycle;Max_cycle;Signal;HPM_P1;HPM_P2
2023/12/17 00:00:46;;;;;;;1.90;1.80;;;;;;;5.22;62.79;102190.66;4397203;32;34075;-80
2023/12/17 00:03:14;;;;;;;2.00;1.90;;;;;;;5.15;62.70;102186.16;4401159;32;32519;-81
2023/12/17 00:05:48;;;;;;;1.33;1.15;;;;;;;4.94;62.83;102191.00;4407629;32;33827;-81
2023/12/17 00:08:19;;;;;;;3.87;3.08;;;;;;;4.92;62.90;102203.19;4409280;32;33607;-81
2023/12/17 00:10:49;;;;;;;1.75;1.65;;;;;;;4.90;63.40;102199.69;4397355;32;32782;-80
2023/12/17 00:13:17;;;;;;;0.77;0.77;;;;;;;4.96;62.69;102194.53;4408065;32;32830;-80
2023/12/17 00:15:45;;;;;;;0.80;0.80;;;;;;;4.82;62.87;102203.03;4396564;32;33793;-80
2023/12/17 00:18:13;;;;;;;6.32;1.85;;;;;;;4.85;62.25;102208.34;4407408;32;32188;-80
2023/12/17 00:20:42;;;;;;;0.82;0.82;;;;;;;4.76;62.91;102213.41;4407880;32;33624;-80
2023/12/17 00:23:10;;;;;;;2.08;1.75;;;;;;;4.68;62.84;102198.41;4396598;32;33590;-80
2023/12/17 00:25:37;;;;;;;2.55;0.60;;;;;;;4.57;62.72;102198.19;4396282;32;34050;-80
2023/12/17 00:28:05;;;;;;;3.62;1.25;;;;;;;4.73;62.27;102200.25;4408086;32;33688;-80
2023/12/17 00:30:33;;;;;;;3.15;2.50;;;;;;;4.60;62.49;102200.84;4396229;32;33057;-80
2023/12/17 00:33:01;;;;;;;4.22;2.62;;;;;;;4.55;62.86;102192.03;4396626;32;32308;-80
2023/12/17 00:35:29;;;;;;;10.23;1.75;;;;;;;4.56;62.41;102194.72;4406568;32;33082;-80
2023/12/17 00:37:58;;;;;;;3.47;3.15;;;;;;;4.50;62.77;102178.87;4408775;32;35202;-80
2023/12/17 00:40:25;;;;;;;2.20;0.52;;;;;;;4.55;62.66;102186.81;4407659;32;33197;-80
2023/12/17 00:42:53;;;;;;;1.42;1.37;;;;;;;4.50;62.92;102196.31;4407701;32;33228;-80
2023/12/17 00:45:21;;;;;;;0.80;0.80;;;;;;;4.48;62.44;102195.41;4396239;32;33195;-82
2023/12/17 00:47:48;;;;;;;0.25;0.25;;;;;;;4.49;62.38;102203.28;4407245;32;33325;-81
2023/12/17 00:50:16;;;;;;;0.20;0.20;;;;;;;4.44;62.23;102194.47;4409044;32;33597;-81
2023/12/17 00:52:44;;;;;;;1.87;1.48;;;;;;;4.42;62.32;102195.28;4407565;32;32701;-80
2023/12/17 00:55:12;;;;;;;2.50;1.05;;;;;;;4.49;61.89;102189.31;4420262;32;33155;-81
2023/12/17 00:57:40;;;;;;;1.10;1.00;;;;;;;4.47;61.75;102189.28;4407750;32;33500;-81
2023/12/17 01:00:08;;;;;;;3.00;1.60;;;;;;;4.46;61.61;102186.63;4407673;32;33667;-81
2023/12/17 01:02:36;;;;;;;0.47;0.47;;;;;;;4.37;62.06;102187.34;4395570;32;33834;-82
2023/12/17 01:05:04;;;;;;;0.37;0.37;;;;;;;4.40;61.87;102196.97;4408705;32;33843;-81
2023/12/17 01:07:32;;;;;;;0.20;0.20;;;;;;;4.09;62.60;102207.69;4394905;32;33181;-81
2023/12/17 01:10:00;;;;;;;1.37;1.27;;;;;;;4.06;62.70;102212.84;4408847;32;33777;-81
2023/12/17 01:12:28;;;;;;;2.30;2.10;;;;;;;4.13;62.80;102208.66;4408670;32;33086;-81
2023/12/17 01:14:55;;;;;;;0.37;0.37;;;;;;;4.10;62.51;102200.75;4420373;32;33518;-81
2023/12/17 01:17:23;;;;;;;1.42;1.37;;;;;;;4.19;61.48;102200.06;4395336;32;32706;-81
2023/12/17 01:19:51;;;;;;;1.42;1.33;;;;;;;4.14;62.13;102197.34;4419096;32;34548;-81
2023/12/17 01:22:18;;;;;;;0.00;0.00;;;;;;;4.18;62.09;102209.63;4395770;32;32657;-82
2023/12/17 01:24:49;;;;;;;0.57;0.57;;;;;;;3.96;62.13;102207.41;4420193;32;34594;-80
2023/12/17 01:27:17;;;;;;;1.48;1.23;;;;;;;3.98;62.44;102209.19;4408047;32;34835;-80
2023/12/17 01:29:45;;;;;;;0.73;0.37;;;;;;;3.94;62.37;102196.00;4407644;32;33430;-80
2023/12/17 01:32:12;;;;;;;0.62;0.62;;;;;;;3.93;62.84;102194.25;4420299;32;33362;-79
2023/12/17 01:34:40;;;;;;;2.53;1.10;;;;;;;3.94;62.88;102180.31;4395808;32;32796;-79
2023/12/17 01:37:08;;;;;;;0.35;0.35;;;;;;;3.99;62.77;102173.50;4394339;32;33150;-80
2023/12/17 01:39:36;;;;;;;0.35;0.35;;;;;;;3.93;62.53;102186.41;4407785;32;33016;-79
2023/12/17 01:42:04;;;;;;;2.65;1.48;;;;;;;3.68;63.04;102187.59;4407617;32;33113;-79
2023/12/17 01:44:31;;;;;;;1.65;1.12;;;;;;;3.73;63.23;102189.47;4391336;32;32843;-79
2023/12/17 01:46:59;;;;;;;2.45;0.68;;;;;;;3.89;62.75;102192.41;4395674;32;35238;-79
2023/12/17 01:49:27;;;;;;;0.30;0.30;;;;;;;3.85;62.79;102201.94;4408444;32;34269;-82
2023/12/17 01:51:55;;;;;;;0.25;0.25;;;;;;;3.96;62.23;102212.63;4407808;32;32587;-81
2023/12/17 01:54:23;;;;;;;1.10;0.90;;;;;;;3.98;62.32;102208.31;4406328;32;33470;-82
2023/12/17 01:56:51;;;;;;;0.28;0.25;;;;;;;3.71;63.21;102201.62;4395818;32;34248;-81
2023/12/17 01:59:18;;;;;;;1.02;0.93;;;;;;;3.81;62.94;102198.38;4408423;32;33851;-81
2023/12/17 02:01:46;;;;;;;1.52;1.33;;;;;;;3.82;63.43;102194.91;4395823;32;32392;-81
2023/12/17 02:04:14;;;;;;;2.05;1.73;;;;;;;3.78;63.29;102195.69;4403043;32;34055;-81
2023/12/17 02:06:43;;;;;;;0.37;0.37;;;;;;;3.86;63.45;102201.09;4420275;32;33753;-81
2023/12/17 02:09:11;;;;;;;1.45;1.12;;;;;;;3.68;63.58;102198.94;4392620;32;32800;-81
2023/12/17 02:11:39;;;;;;;1.62;1.55;;;;;;;3.57;64.02;102201.31;4394659;32;34403;-80
2023/12/17 02:14:07;;;;;;;1.20;1.12;;;;;;;3.81;63.31;102190.53;4406234;32;33003;-80
2023/12/17 02:16:34;;;;;;;1.35;1.27;;;;;;;3.50;64.37;102203.72;4392601;32;96408;-80
2023/12/17 02:19:02;;;;;;;1.62;1.52;;;;;;;3.67;64.44;102205.03;4395726;32;34412;-80
2023/12/17 02:21:30;;;;;;;0.13;0.13;;;;;;;3.73;63.75;102199.03;4395676;32;32549;-80
2023/12/17 02:23:58;;;;;;;1.62;0.73;;;;;;;3.81;63.44;102194.88;4407231;32;32989;-80
2023/12/17 02:26:26;;;;;;;0.85;0.85;;;;;;;3.71;63.72;102188.56;4395708;32;32899;-80
2023/12/17 02:28:53;;;;;;;1.70;1.60;;;;;;;3.77;63.10;102188.69;4407037;32;34323;-80
2023/12/17 02:31:20;;;;;;;2.80;2.53;;;;;;;3.85;63.17;102189.75;4408432;32;33151;-80
2023/12/17 02:33:48;;;;;;;2.80;2.58;;;;;;;3.54;63.91;102192.50;4394082;32;34153;-80
2023/12/17 02:36:16;;;;;;;0.15;0.15;;;;;;;3.67;64.00;102191.97;4407784;32;34498;-80
2023/12/17 02:38:44;;;;;;;0.98;0.98;;;;;;;3.67;63.70;102191.97;4395131;32;32787;-80
2023/12/17 02:41:12;;;;;;;2.05;1.95;;;;;;;3.88;62.80;102198.50;4395642;32;32733;-80
2023/12/17 02:43:39;;;;;;;1.33;1.33;;;;;;;3.77;63.23;102183.47;4408134;32;33601;-80
2023/12/17 02:46:07;;;;;;;0.70;0.70;;;;;;;3.75;63.49;102176.44;4399032;32;33494;-80
2023/12/17 02:48:35;;;;;;;0.77;0.77;;;;;;;3.72;62.75;102174.66;4408185;32;35781;-80
2023/12/17 02:51:03;;;;;;;0.15;0.15;;;;;;;3.88;61.62;102167.12;4407058;32;33491;-80
2023/12/17 02:53:31;;;;;;;6.75;2.78;;;;;;;3.68;63.06;102158.87;4395585;32;33933;-80
2023/12/17 02:56:02;;;;;;;0.75;0.75;;;;;;;3.68;62.57;102167.59;4420815;32;33977;-81
2023/12/17 02:58:29;;;;;;;1.50;1.40;;;;;;;3.67;62.94;102162.34;4407585;32;33797;-81
2023/12/17 03:00:57;;;;;;;0.65;0.65;;;;;;;3.53;63.73;102157.69;4400679;32;33002;-79
2023/12/17 03:03:24;;;;;;;1.40;1.30;;;;;;;3.57;63.46;102156.03;4395289;32;32312;-79
2023/12/17 03:05:52;;;;;;;1.55;1.33;;;;;;;3.57;63.30;102151.69;4407271;32;33394;-80
2023/12/17 03:08:20;;;;;;;1.23;1.12;;;;;;;3.66;63.18;102143.16;4419511;32;34077;-79
2023/12/17 03:10:48;;;;;;;0.47;0.47;;;;;;;3.68;63.15;102141.47;4407667;32;33655;-79
2023/12/17 03:13:16;;;;;;;2.03;1.83;;;;;;;3.57;63.34;102146.44;4421369;32;34074;-80
2023/12/17 03:15:43;;;;;;;0.80;0.80;;;;;;;3.63;63.33;102143.09;4394927;32;33221;-80
2023/12/17 03:18:11;;;;;;;0.85;0.85;;;;;;;3.63;63.55;102143.09;4394880;32;33143;-80
2023/12/17 03:20:39;;;;;;;0.45;0.45;;;;;;;3.63;63.67;102148.31;4406780;32;33544;-79
2023/12/17 03:23:07;;;;;;;0.20;0.20;;;;;;;3.68;62.75;102151.91;4394940;32;32529;-79
2023/12/17 03:25:35;;;;;;;0.10;0.10;;;;;;;3.47;63.73;102157.53;4406775;32;33915;-79
2023/12/17 03:28:02;;;;;;;0.32;0.32;;;;;;;3.89;62.77;102159.31;4407559;32;34851;-79
2023/12/17 03:30:30;;;;;;;0.20;0.20;;;;;;;3.92;62.64;102150.66;4407103;32;33256;-79
2023/12/17 03:32:58;;;;;;;1.12;1.02;;;;;;;3.36;64.28;102155.50;4393658;32;32722;-79
2023/12/17 03:35:26;;;;;;;0.45;0.45;;;;;;;3.47;63.48;102161.87;4406824;32;32949;-79
2023/12/17 03:37:53;;;;;;;0.68;0.68;;;;;;;3.39;64.06;102161.69;4406761;32;34600;-79
2023/12/17 03:40:21;;;;;;;0.55;0.55;;;;;;;3.39;64.58;102150.38;4394418;32;32685;-79
2023/12/17 03:42:49;;;;;;;2.28;2.17;;;;;;;3.47;64.71;102146.22;4394632;32;32458;-79
2023/12/17 03:45:16;;;;;;;1.40;1.30;;;;;;;3.79;63.63;102144.28;4393285;32;32906;-79
2023/12/17 03:47:46;;;;;;;1.85;1.75;;;;;;;3.68;63.73;102151.03;4398723;32;33247;-79
2023/12/17 03:50:15;;;;;;;1.17;1.17;;;;;;;3.84;63.38;102146.16;4413117;32;32222;-79
2023/12/17 03:52:47;;;;;;;3.45;3.10;;;;;;;3.49;63.93;102140.16;4406573;32;32201;-81
2023/12/17 03:55:15;;;;;;;0.52;0.52;;;;;;;3.45;64.23;102133.09;4406404;32;33923;-80
2023/12/17 03:57:42;;;;;;;2.62;1.37;;;;;;;3.35;64.41;102141.56;4407144;32;34135;-79
2023/12/17 04:00:10;;;;;;;0.20;0.20;;;;;;;3.36;64.27;102137.22;4406535;32;34109;-79
2023/12/17 04:02:38;;;;;;;1.40;1.20;;;;;;;3.53;63.96;102130.69;4394650;32;33002;-79
2023/12/17 04:05:07;;;;;;;1.10;0.50;;;;;;;3.25;65.32;102130.03;4406386;32;34469;-79
2023/12/17 04:07:35;;;;;;;2.05;1.95;;;;;;;3.11;65.52;102136.66;4407061;32;33725;-79
2023/12/17 04:10:03;;;;;;;0.08;0.08;;;;;;;3.30;65.94;102133.62;4393530;32;32423;-79
2023/12/17 04:12:31;;;;;;;0.15;0.15;;;;;;;3.51;64.57;102135.88;4406687;32;33465;-79
2023/12/17 04:14:59;;;;;;;1.35;1.33;;;;;;;3.58;64.86;102134.28;4393113;32;33551;-79
2023/12/17 04:17:27;;;;;;;1.48;1.37;;;;;;;3.41;64.37;102138.22;4406614;32;33817;-80
2023/12/17 04:19:54;;;;;;;0.30;0.30;;;;;;;3.47;65.03;102136.66;4406884;32;33824;-80
2023/12/17 04:22:23;;;;;;;0.52;0.52;;;;;;;3.45;65.00;102121.78;4405967;32;33299;-81
2023/12/17 04:24:50;;;;;;;0.65;0.65;;;;;;;3.78;63.25;102112.06;4405586;32;33496;-79
2023/12/17 04:27:18;;;;;;;1.37;1.27;;;;;;;3.66;63.62;102110.94;4406141;32;33292;-81
2023/12/17 04:29:46;;;;;;;0.75;0.75;;;;;;;3.67;63.87;102110.09;4392961;32;32691;-81
2023/12/17 04:32:14;;;;;;;0.00;0.00;;;;;;;3.61;63.96;102123.91;4406999;32;34445;-81
2023/12/17 04:34:41;;;;;;;0.13;0.13;;;;;;;3.80;63.37;102117.34;4394395;32;34405;-82
2023/12/17 04:37:09;;;;;;;0.35;0.35;;;;;;;3.78;63.60;102122.50;4406966;32;32808;-82
2023/12/17 04:39:37;;;;;;;0.80;0.80;;;;;;;3.54;64.35;102121.97;4406728;32;32936;-82
2023/12/17 04:42:05;;;;;;;2.53;2.33;;;;;;;3.50;63.47;102121.03;4409325;32;33810;-82
2023/12/17 04:44:32;;;;;;;0.00;0.00;;;;;;;3.31;64.48;102119.72;4409010;32;34673;-82
2023/12/17 04:47:00;;;;;;;1.60;0.55;;;;;;;3.36;64.17;102129.41;4408784;32;33749;-82
2023/12/17 04:49:28;;;;;;;1.17;1.02;;;;;;;3.40;64.10;102124.28;4408274;32;33643;-81
2023/12/17 04:51:56;;;;;;;2.15;2.03;;;;;;;3.43;63.79;102119.13;4408354;32;34181;-81
2023/12/17 04:54:24;;;;;;;0.05;0.05;;;;;;;3.47;63.79;102130.53;4384247;32;33323;-81
2023/12/17 04:56:54;;;;;;;2.17;2.08;;;;;;;3.53;63.74;102125.44;4408653;32;34579;-81
2023/12/17 04:59:22;;;;;;;1.40;1.33;;;;;;;3.48;63.72;102117.50;4408740;32;32879;-81
2023/12/17 05:01:50;;;;;;;1.00;1.00;;;;;;;3.53;63.36;102120.22;4408769;32;33955;-81
2023/12/17 05:04:18;;;;;;;1.35;1.27;;;;;;;3.46;63.79;102126.16;4408731;32;34028;-81
2023/12/17 05:06:46;;;;;;;1.37;1.33;;;;;;;3.38;64.16;102130.34;4394507;32;32804;-81
2023/12/17 05:09:14;;;;;;;2.25;2.15;;;;;;;3.52;63.39;102135.03;4383932;32;33799;-81
2023/12/17 05:11:41;;;;;;;3.15;1.95;;;;;;;3.55;63.21;102128.97;4407832;32;33221;-81
2023/12/17 05:14:09;;;;;;;2.25;2.12;;;;;;;3.50;63.02;102139.31;4405402;32;32548;-80
2023/12/17 05:16:40;;;;;;;2.83;2.62;;;;;;;3.47;63.08;102139.25;4408540;32;33350;-80
2023/12/17 05:19:09;;;;;;;1.75;1.65;;;;;;;3.41;63.66;102140.84;4396214;32;33199;-80
2023/12/17 05:21:37;;;;;;;3.12;1.73;;;;;;;3.41;63.45;102140.84;4395947;32;32085;-80
2023/12/17 05:24:05;;;;;;;1.87;1.77;;;;;;;3.44;63.84;102140.91;4395958;32;32901;-80
2023/12/17 05:26:33;;;;;;;1.52;0.77;;;;;;;3.43;63.85;102136.53;4396238;32;33713;-81
2023/12/17 05:29:00;;;;;;;3.05;2.85;;;;;;;3.42;63.36;102133.06;4408056;32;34289;-79
2023/12/17 05:31:28;;;;;;;2.62;2.35;;;;;;;3.30;64.09;102128.41;4407541;32;33538;-79
2023/12/17 05:33:56;;;;;;;3.28;0.70;;;;;;;3.36;63.71;102137.22;4407372;32;33981;-79
2023/12/17 05:36:24;;;;;;;0.10;0.10;;;;;;;3.42;63.56;102139.97;4408078;32;34206;-79
2023/12/17 05:38:51;;;;;;;0.20;0.20;;;;;;;3.10;64.16;102139.25;4394441;32;33091;-80
2023/12/17 05:41:19;;;;;;;2.40;2.20;;;;;;;3.21;63.75;102142.97;4408219;32;33519;-80
2023/12/17 05:43:47;;;;;;;0.40;0.35;;;;;;;3.34;64.10;102145.03;4407298;32;32973;-79
2023/12/17 05:46:14;;;;;;;1.37;1.27;;;;;;;3.22;64.48;102142.13;4420057;32;33684;-79
2023/12/17 05:48:42;;;;;;;0.95;0.88;;;;;;;3.27;64.51;102133.56;4395617;32;32517;-80
2023/12/17 05:51:10;;;;;;;1.95;1.85;;;;;;;3.24;64.78;102154.38;4395986;32;33638;-80
2023/12/17 05:53:37;;;;;;;2.55;1.95;;;;;;;3.27;65.08;102156.16;4390676;32;34262;-79
2023/12/17 05:56:13;;;;;;;0.60;0.60;;;;;;;3.40;64.14;102153.00;4409183;32;34516;-79
2023/12/17 05:58:41;;;;;;;0.70;0.70;;;;;;;3.32;63.88;102155.47;4408251;32;34420;-79
2023/12/17 06:01:09;;;;;;;1.45;1.12;;;;;;;3.23;64.70;102147.41;4406766;32;33081;-79
2023/12/17 06:03:38;;;;;;;2.50;2.30;;;;;;;3.25;64.42;102150.94;4395079;32;33344;-79
2023/12/17 06:06:07;;;;;;;0.88;0.73;;;;;;;3.27;64.30;102145.72;4421842;32;34103;-79
2023/12/17 06:08:35;;;;;;;0.22;0.22;;;;;;;3.31;63.94;102151.06;4408199;32;34085;-79
2023/12/17 06:11:03;;;;;;;1.05;1.05;;;;;;;3.43;63.86;102144.38;4393605;32;34720;-79
2023/12/17 06:13:31;;;;;;;3.53;2.00;;;;;;;3.38;63.78;102140.78;4399904;32;33798;-79
2023/12/17 06:16:01;;;;;;;2.78;1.80;;;;;;;3.85;62.46;102128.75;4394560;32;32260;-79
2023/12/17 06:18:29;;;;;;;2.47;1.35;;;;;;;3.78;61.87;102125.13;4408204;32;32876;-80
2023/12/17 06:20:57;;;;;;;1.20;1.20;;;;;;;3.31;63.60;102121.47;4407975;32;34615;-80
2023/12/17 06:23:25;;;;;;;1.65;1.20;;;;;;;3.30;63.37;102112.75;4408169;32;33601;-80
2023/12/17 06:25:53;;;;;;;2.42;2.33;;;;;;;3.16;63.81;102127.22;4388682;32;33528;-80
2023/12/17 06:28:21;;;;;;;1.17;1.12;;;;;;;3.27;63.79;102119.62;4420215;32;33583;-80
2023/12/17 06:30:48;;;;;;;1.45;1.35;;;;;;;3.03;64.71;102122.53;4408024;32;33942;-80
2023/12/17 06:33:16;;;;;;;1.12;1.12;;;;;;;2.97;64.99;102111.94;4407253;32;34018;-80
2023/12/17 06:35:45;;;;;;;0.52;0.52;;;;;;;3.30;63.95;102109.25;4407702;32;33942;-80
2023/12/17 06:38:13;;;;;;;0.90;0.85;;;;;;;3.42;64.00;102100.81;4395497;32;32541;-80
2023/12/17 06:40:41;;;;;;;0.00;0.00;;;;;;;3.41;63.81;102093.81;4406627;32;32771;-81
2023/12/17 06:43:08;;;;;;;0.85;0.75;;;;;;;3.39;64.21;102099.03;4408081;32;33278;-80
2023/12/17 06:45:37;;;;;;;0.00;0.00;;;;;;;3.33;64.12;102106.72;4406788;32;32829;-80
2023/12/17 06:48:05;;;;;;;1.02;0.98;;;;;;;3.27;64.84;102107.44;4382937;32;32493;-80
2023/12/17 06:50:35;;;;;;;1.55;1.52;;;;;;;3.45;63.93;102116.56;4420399;32;33748;-81
2023/12/17 06:53:02;;;;;;;1.33;1.30;;;;;;;3.63;62.88;102116.09;4398738;32;33286;-81
2023/12/17 06:55:30;;;;;;;2.83;2.62;;;;;;;3.37;63.76;102108.56;4393512;32;33540;-80
2023/12/17 06:57:58;;;;;;;2.22;1.85;;;;;;;3.29;64.63;102100.53;4394317;32;34144;-81
2023/12/17 07:00:26;;;;;;;0.77;0.77;;;;;;;3.39;64.92;102105.97;4406196;32;32699;-81
2023/12/17 07:02:54;;;;;;;1.73;1.62;;;;;;;3.25;66.09;102114.38;4407772;32;32943;-81
2023/12/17 07:05:21;;;;;;;0.47;0.47;;;;;;;3.32;66.52;102105.84;4395070;32;32301;-81
2023/12/17 07:07:49;;;;;;;0.55;0.55;;;;;;;3.59;66.79;102104.69;4418841;32;33675;-81
2023/12/17 07:10:17;;;;;;;3.30;2.45;;;;;;;3.75;67.29;102100.66;4406157;32;33093;-83
2023/12/17 07:12:44;;;;;;;1.45;1.35;;;;;;;4.31;66.03;102104.37;4407647;32;33922;-82
2023/12/17 07:15:12;;;;;;;0.75;0.75;;;;;;;4.27;66.30;102106.91;4407278;32;33710;-82
2023/12/17 07:17:40;;;;;;;3.03;2.62;;;;;;;4.50;65.07;102102.13;4419572;32;33715;-82
2023/12/17 07:20:08;;;;;;;0.73;0.73;;;;;;;4.05;66.49;102103.91;4407094;32;33128;-81
2023/12/17 07:22:36;;;;;;;0.10;0.10;;;;;;;4.02;67.27;102101.22;4406424;32;34017;-79
2023/12/17 07:25:05;;;;;;;0.60;0.60;;;;;;;4.30;66.36;102084.31;4406318;32;34155;-81
2023/12/17 07:27:32;;;;;;;3.37;1.55;;;;;;;4.63;65.19;102083.16;4406624;32;32989;-85
2023/12/17 07:30:00;;;;;;;1.50;1.40;;;;;;;4.65;65.74;102078.81;4401645;32;32885;-82
2023/12/17 07:32:28;;;;;;;0.00;0.00;;;;;;;4.75;65.46;102085.13;4407603;32;34649;-82
2023/12/17 07:34:56;;;;;;;0.90;0.90;;;;;;;4.27;67.13;102099.97;4407650;32;34456;-83
2023/12/17 07:37:23;;;;;;;0.22;0.22;;;;;;;4.58;66.49;102097.91;4406846;32;32998;-82
2023/12/17 07:39:51;;;;;;;1.45;0.80;;;;;;;4.94;65.40;102086.28;4407413;32;33227;-83
2023/12/17 07:42:19;;;;;;;0.45;0.45;;;;;;;4.93;65.71;102095.00;4407636;32;33745;-83
2023/12/17 07:44:49;;;;;;;3.30;1.20;;;;;;;5.33;64.84;102093.88;4395236;32;33129;-83
2023/12/17 07:47:17;;;;;;;1.08;1.08;;;;;;;5.36;64.35;102078.19;4407305;32;33299;-83
2023/12/17 07:49:45;;;;;;;1.02;0.55;;;;;;;5.68;63.28;102083.88;4421433;32;33375;-81
2023/12/17 07:52:13;;;;;;;0.93;0.65;;;;;;;5.51;63.71;102090.66;4405817;32;32364;-81
2023/12/17 07:54:41;;;;;;;0.08;0.08;;;;;;;5.85;62.91;102087.59;4395231;32;33520;-81
2023/12/17 07:57:09;;;;;;;0.03;0.03;;;;;;;5.86;62.62;102094.59;4420235;32;33922;-82
2023/12/17 07:59:37;;;;;;;1.05;0.28;;;;;;;5.99;61.88;102093.03;4406871;32;33577;-81
2023/12/17 08:02:05;;;;;;;1.37;1.27;;;;;;;6.17;61.33;102084.47;4394751;32;32915;-81
2023/12/17 08:04:36;;;;;;;0.20;0.20;;;;;;;6.28;60.35;102080.25;4406485;32;33605;-81
2023/12/17 08:07:04;;;;;;;1.37;1.27;;;;;;;6.53;59.94;102093.59;4406698;32;33508;-81
2023/12/17 08:09:35;;;;;;;0.00;0.00;;;;;;;6.77;59.67;102095.56;4406013;32;33987;-81
2023/12/17 08:12:03;;;;;;;0.45;0.45;;;;;;;6.59;60.21;102104.16;4406947;32;32179;-81
2023/12/17 08:14:31;;;;;;;0.10;0.10;;;;;;;6.68;59.83;102112.13;4401361;32;33713;-82
2023/12/17 08:16:59;;;;;;;1.73;1.25;;;;;;;6.75;60.39;102105.19;4396759;32;32173;-82
2023/12/17 08:19:27;;;;;;;0.10;0.10;;;;;;;6.98;59.93;102113.25;4408535;32;34260;-83
2023/12/17 08:21:55;;;;;;;0.98;0.30;;;;;;;6.67;60.67;102115.63;4408793;32;34048;-82
2023/12/17 08:24:24;;;;;;;0.10;0.10;;;;;;;6.60;60.71;102119.06;4406960;32;32854;-82
2023/12/17 08:26:54;;;;;;;0.00;0.00;;;;;;;6.61;59.62;102107.69;4394994;32;32621;-82
2023/12/17 08:29:22;;;;;;;0.00;0.00;;;;;;;6.78;58.87;102103.44;4409460;32;33516;-82
2023/12/17 08:31:50;;;;;;;0.25;0.25;;;;;;;6.86;58.31;102109.66;4407584;32;33642;-81
2023/12/17 08:34:18;;;;;;;0.88;0.65;;;;;;;7.07;57.25;102113.31;4405406;32;33954;-82
2023/12/17 08:36:47;;;;;;;3.58;1.05;;;;;;;7.18;56.98;102109.03;4407622;32;33523;-81
2023/12/17 08:39:15;;;;;;;0.17;0.17;;;;;;;7.35;56.25;102115.25;4399804;32;36320;-80
2023/12/17 08:41:42;;;;;;;0.30;0.30;;;;;;;7.35;55.97;102119.66;4401263;32;32407;-80
2023/12/17 08:44:10;;;;;;;0.32;0.32;;;;;;;7.73;55.37;102122.50;4390877;32;32702;-80
2023/12/17 08:46:38;;;;;;;1.45;1.35;;;;;;;7.69;54.83;102125.97;4390541;32;31980;-80
2023/12/17 08:49:06;;;;;;;2.28;0.93;;;;;;;7.53;54.71;102127.66;4415373;32;32420;-80
2023/12/17 08:51:34;;;;;;;1.65;1.45;;;;;;;7.82;54.95;102126.94;4401734;32;34774;-80
2023/12/17 08:54:02;;;;;;;1.00;0.90;;;;;;;8.12;54.30;102132.34;4402541;32;33589;-80
2023/12/17 08:56:29;;;;;;;3.75;0.65;;;;;;;8.31;53.95;102132.38;4389208;32;32493;-80
2023/12/17 08:58:57;;;;;;;2.92;0.82;;;;;;;8.21;54.14;102134.09;4402112;32;32233;-80
2023/12/17 09:01:25;;;;;;;0.52;0.52;;;;;;;8.33;53.87;102135.91;4401989;32;33340;-80
2023/12/17 09:03:53;;;;;;;0.43;0.43;;;;;;;8.24;52.71;102142.00;4390626;32;33634;-81
2023/12/17 09:06:23;;;;;;;1.17;0.98;;;;;;;8.66;52.35;102140.41;4401482;32;32242;-80
2023/12/17 09:08:51;;;;;;;0.40;0.40;;;;;;;8.58;51.99;102135.09;4402051;32;32872;-80
2023/12/17 09:11:19;;;;;;;0.30;0.20;;;;;;;8.79;51.07;102123.75;4415778;32;33079;-80
2023/12/17 09:13:48;;;;;;;0.62;0.62;;;;;;;8.73;51.88;102126.34;4400980;32;33309;-80
2023/12/17 09:16:17;;;;;;;1.30;1.20;;;;;;;9.05;51.40;102128.13;4415210;32;32493;-80
2023/12/17 09:18:44;;;;;;;0.95;0.95;;;;;;;9.06;50.56;102116.69;4389913;32;31564;-80
2023/12/17 09:21:12;;;;;;;0.70;0.43;;;;;;;9.16;50.36;102111.44;4402793;32;33700;-80
2023/12/17 09:23:40;;;;;;;0.00;0.00;;;;;;;9.40;49.43;102121.06;4415639;32;34214;-80
2023/12/17 09:26:08;;;;;;;0.68;0.68;;;;;;;9.07;50.43;102116.72;4392625;32;33476;-81
2023/12/17 09:28:36;;;;;;;0.52;0.50;;;;;;;9.18;50.18;102114.06;4394604;32;33524;-80
2023/12/17 09:31:08;;;;;;;0.30;0.30;;;;;;;8.73;51.72;102115.81;4406695;32;33252;-80
2023/12/17 09:33:37;;;;;;;3.78;0.75;;;;;;;9.15;50.43;102108.78;4407737;32;34118;-80
2023/12/17 09:36:05;;;;;;;0.17;0.17;;;;;;;9.38;50.00;102112.25;4405709;32;31953;-80
2023/12/17 09:38:33;;;;;;;2.92;1.27;;;;;;;9.53;49.46;102110.47;4406962;32;34234;-80
2023/12/17 09:41:04;;;;;;;0.57;0.57;;;;;;;9.84;48.86;102104.22;4381110;32;34368;-80
2023/12/17 09:43:32;;;;;;;2.03;1.30;;;;;;;9.55;48.98;102092.91;4395456;32;33865;-80
2023/12/17 09:46:00;;;;;;;0.40;0.40;;;;;;;9.60;49.13;102092.00;4407017;32;33526;-80
2023/12/17 09:48:29;;;;;;;0.52;0.47;;;;;;;10.14;48.65;102094.41;4403466;32;32973;-80
2023/12/17 09:50:57;;;;;;;0.25;0.25;;;;;;;9.95;48.56;102083.06;4419068;32;33695;-80
2023/12/17 09:53:25;;;;;;;1.17;0.90;;;;;;;10.20;48.01;102083.81;4406989;32;33801;-80
2023/12/17 09:55:53;;;;;;;0.52;0.52;;;;;;;9.75;49.25;102072.59;4393615;32;33728;-81
2023/12/17 09:58:20;;;;;;;3.40;2.20;;;;;;;9.89;49.28;102077.81;4404642;32;33354;-80
2023/12/17 10:00:48;;;;;;;2.45;0.28;;;;;;;10.27;48.18;102075.00;4406554;32;34097;-81
2023/12/17 10:03:16;;;;;;;0.50;0.50;;;;;;;10.51;47.31;102073.97;4404973;32;32736;-80
2023/12/17 10:05:51;;;;;;;0.00;0.00;;;;;;;10.30;48.12;102074.97;4392635;32;32502;-80
2023/12/17 10:08:20;;;;;;;5.43;1.00;;;;;;;10.39;47.13;102069.63;4393945;32;33636;-80
2023/12/17 10:10:48;;;;;;;0.10;0.10;;;;;;;10.37;47.82;102060.84;4406350;32;33728;-80
2023/12/17 10:13:20;;;;;;;0.62;0.62;;;;;;;10.20;47.79;102068.84;4399130;32;33684;-81
2023/12/17 10:15:53;;;;;;;0.20;0.20;;;;;;;10.36;47.38;102059.09;4419860;32;33989;-81
2023/12/17 10:18:22;;;;;;;0.00;0.00;;;;;;;9.91;48.26;102063.72;4406871;32;34983;-81
2023/12/17 10:20:51;;;;;;;0.32;0.32;;;;;;;10.55;47.35;102049.28;4406602;32;33835;-80
2023/12/17 10:23:19;;;;;;;0.10;0.10;;;;;;;10.42;47.38;102048.50;4391326;32;33420;-81
2023/12/17 10:25:46;;;;;;;1.33;0.98;;;;;;;10.59;47.29;102043.09;4408139;32;33097;-82
2023/12/17 10:28:15;;;;;;;2.33;0.30;;;;;;;10.61;47.05;102043.94;4407505;32;33743;-81
2023/12/17 10:30:43;;;;;;;0.30;0.30;;;;;;;10.81;46.22;102041.13;4407613;32;33803;-81
2023/12/17 10:33:17;;;;;;;0.45;0.45;;;;;;;10.47;47.21;102041.41;4393325;32;33393;-81
2023/12/17 10:35:46;;;;;;;0.10;0.10;;;;;;;10.77;46.87;102040.28;4396211;32;32813;-80
2023/12/17 10:38:14;;;;;;;0.47;0.30;;;;;;;10.92;45.70;102027.81;4404910;32;33669;-80
2023/12/17 10:40:42;;;;;;;1.20;0.70;;;;;;;11.01;45.42;102030.37;4393892;32;34852;-80
2023/12/17 10:43:12;;;;;;;1.62;1.15;;;;;;;11.12;44.90;102031.16;4392803;32;33158;-80
2023/12/17 10:45:42;;;;;;;1.45;0.80;;;;;;;10.75;45.15;102025.34;4407260;32;32335;-80
2023/12/17 10:48:12;;;;;;;1.00;0.88;;;;;;;11.23;44.10;102017.81;4394695;32;34292;-80
2023/12/17 10:50:40;;;;;;;2.85;0.60;;;;;;;11.35;43.67;102022.97;4406232;32;33439;-80
2023/12/17 10:53:08;;;;;;;0.00;0.00;;;;;;;11.33;45.08;102016.81;4406776;32;32724;-80
2023/12/17 10:55:36;;;;;;;0.03;0.03;;;;;;;11.57;44.75;102012.13;4406331;32;34232;-80
2023/12/17 10:58:12;;;;;;;1.20;1.10;;;;;;;11.25;44.40;102014.28;4406586;32;33257;-81
2023/12/17 11:00:40;;;;;;;0.52;0.52;;;;;;;11.36;44.68;102006.19;4394278;32;33693;-80
2023/12/17 11:03:09;;;;;;;0.60;0.55;;;;;;;11.40;43.99;102007.91;4406275;32;34182;-81
2023/12/17 11:05:37;;;;;;;1.25;1.08;;;;;;;11.39;43.82;102019.38;4397609;32;32523;-80
2023/12/17 11:08:08;;;;;;;1.02;1.02;;;;;;;10.93;43.82;102017.25;4394547;32;32885;-80
2023/12/17 11:10:37;;;;;;;0.20;0.17;;;;;;;10.95;44.07;102011.94;4405932;32;34476;-80
2023/12/17 11:13:05;;;;;;;0.10;0.10;;;;;;;11.25;43.36;102016.00;4406701;32;34414;-80
2023/12/17 11:15:32;;;;;;;0.50;0.50;;;;;;;10.97;43.47;102008.41;4405355;32;32356;-80
2023/12/17 11:18:00;;;;;;;0.10;0.10;;;;;;;11.12;43.75;102001.19;4405570;32;32954;-80
2023/12/17 11:20:35;;;;;;;0.95;0.93;;;;;;;11.18;43.84;102001.12;4416956;32;34661;-80
2023/12/17 11:23:04;;;;;;;0.32;0.32;;;;;;;11.19;43.94;102000.22;4406417;32;33324;-80
2023/12/17 11:25:34;;;;;;;6.40;1.40;;;;;;;11.38;44.36;101996.47;4407093;32;33564;-81
2023/12/17 11:28:02;;;;;;;0.32;0.32;;;;;;;11.34;44.92;101997.38;4406502;32;34110;-80
2023/12/17 11:30:31;;;;;;;0.08;0.08;;;;;;;10.94;44.14;101995.19;4400992;32;33037;-81
2023/12/17 11:33:01;;;;;;;0.45;0.45;;;;;;;11.02;44.41;101992.50;4407122;32;33674;-80
2023/12/17 11:35:30;;;;;;;0.60;0.57;;;;;;;11.16;44.24;101992.34;4406339;32;32241;-80